sensor_id;sensor_type;location;lat;lon;timestamp;temperature;humidity
17571;DHT22;8903;52.220;20.978;2023-04-12T00:02:20;8.70;99.90
17571;DHT22;8903;52.220;20.978;2023-04-12T00:04:47;8.60;99.90
17571;DHT22;8903;52.220;20.978;2023-04-12T00:07:20;8.50;99.90
17571;DHT22;8903;52.220;20.978;2023-04-12T00:09:47;8.50;99.90
17571;DHT22;8903;52.220;20.978;2023-04-12T00:12:14;8.50;99.90
17571;DHT22;8903;52.220;20.978;2023-04-12T00:14:43;8.50;99.90
17571;DHT22;8903;52.220;20.978;2023-04-12T00:17:10;8.40;99.90
17571;DHT22;8903;52.220;20.978;2023-04-12T00:19:38;8.40;99.90
17571;DHT22;8903;52.220;20.978;2023-04-12T00:22:09;8.40;99.90
17571;DHT22;8903;52.220;20.978;2023-04-12T00:24:38;8.40;99.90
17571;DHT22;8903;52.220;20.978;2023-04-12T00:27:05;8.40;99.90
17571;DHT22;8903;52.220;20.978;2023-04-12T00:29:32;8.40;99.90
17571;DHT22;8903;52.220;20.978;2023-04-12T00:32:01;8.40;99.90
17571;DHT22;8903;52.220;20.978;2023-04-12T00:34:30;8.40;99.90
17571;DHT22;8903;52.220;20.978;2023-04-12T00:36:57;8.40;99.90
17571;DHT22;8903;52.220;20.978;2023-04-12T00:39:24;8.30;99.90
17571;DHT22;8903;52.220;20.978;2023-04-12T00:41:51;8.20;99.90
17571;DHT22;8903;52.220;20.978;2023-04-12T00:44:19;8.10;99.90
17571;DHT22;8903;52.220;20.978;2023-04-12T00:46:46;8.00;99.90
17571;DHT22;8903;52.220;20.978;2023-04-12T00:49:14;8.00;99.90
17571;DHT22;8903;52.220;20.978;2023-04-12T00:51:42;7.90;99.90
17571;DHT22;8903;52.220;20.978;2023-04-12T00:54:09;7.90;99.90
17571;DHT22;8903;52.220;20.978;2023-04-12T00:56:37;7.90;99.90
17571;DHT22;8903;52.220;20.978;2023-04-12T00:59:05;7.90;99.90
17571;DHT22;8903;52.220;20.978;2023-04-12T01:01:33;7.90;99.90
17571;DHT22;8903;52.220;20.978;2023-04-12T01:04:00;7.90;99.90
17571;DHT22;8903;52.220;20.978;2023-04-12T01:06:40;7.90;99.90
17571;DHT22;8903;52.220;20.978;2023-04-12T01:09:17;8.00;99.90
17571;DHT22;8903;52.220;20.978;2023-04-12T01:11:50;8.00;99.90
17571;DHT22;8903;52.220;20.978;2023-04-12T01:14:30;8.00;99.90
17571;DHT22;8903;52.220;20.978;2023-04-12T01:17:03;8.00;99.90
17571;DHT22;8903;52.220;20.978;2023-04-12T01:19:45;8.00;99.90
17571;DHT22;8903;52.220;20.978;2023-04-12T01:22:30;8.00;99.90
17571;DHT22;8903;52.220;20.978;2023-04-12T01:25:13;8.00;99.90
17571;DHT22;8903;52.220;20.978;2023-04-12T01:27:53;8.00;99.90
17571;DHT22;8903;52.220;20.978;2023-04-12T01:30:26;8.00;99.90
17571;DHT22;8903;52.220;20.978;2023-04-12T01:32:55;8.00;99.90
17571;DHT22;8903;52.220;20.978;2023-04-12T01:35:26;8.00;99.90
17571;DHT22;8903;52.220;20.978;2023-04-12T01:37:53;8.00;99.90
17571;DHT22;8903;52.220;20.978;2023-04-12T01:40:22;8.00;99.90
17571;DHT22;8903;52.220;20.978;2023-04-12T01:43:03;8.00;99.90
17571;DHT22;8903;52.220;20.978;2023-04-12T01:45:30;8.10;99.90
17571;DHT22;8903;52.220;20.978;2023-04-12T01:47:57;8.00;99.90
17571;DHT22;8903;52.220;20.978;2023-04-12T01:50:32;8.00;99.90
17571;DHT22;8903;52.220;20.978;2023-04-12T01:53:05;7.90;99.90
17571;DHT22;8903;52.220;20.978;2023-04-12T01:55:37;8.00;99.90
17571;DHT22;8903;52.220;20.978;2023-04-12T01:58:06;7.90;99.90
17571;DHT22;8903;52.220;20.978;2023-04-12T02:00:37;7.90;99.90
17571;DHT22;8903;52.220;20.978;2023-04-12T02:03:05;7.90;99.90
17571;DHT22;8903;52.220;20.978;2023-04-12T02:05:32;7.90;99.90
17571;DHT22;8903;52.220;20.978;2023-04-12T02:08:01;7.80;99.90
17571;DHT22;8903;52.220;20.978;2023-04-12T02:10:30;7.80;99.90
17571;DHT22;8903;52.220;20.978;2023-04-12T02:12:58;7.80;99.90
17571;DHT22;8903;52.220;20.978;2023-04-12T02:15:27;7.80;99.90
17571;DHT22;8903;52.220;20.978;2023-04-12T02:17:54;7.80;99.90
17571;DHT22;8903;52.220;20.978;2023-04-12T02:20:24;7.80;99.90
17571;DHT22;8903;52.220;20.978;2023-04-12T02:22:51;7.80;99.90
17571;DHT22;8903;52.220;20.978;2023-04-12T02:25:19;7.80;99.90
17571;DHT22;8903;52.220;20.978;2023-04-12T02:27:46;7.80;99.90
17571;DHT22;8903;52.220;20.978;2023-04-12T02:30:14;7.70;99.90
17571;DHT22;8903;52.220;20.978;2023-04-12T02:32:46;7.70;99.90
17571;DHT22;8903;52.220;20.978;2023-04-12T02:35:21;7.70;99.90
17571;DHT22;8903;52.220;20.978;2023-04-12T02:37:52;7.70;99.90
17571;DHT22;8903;52.220;20.978;2023-04-12T02:40:22;7.80;99.90
17571;DHT22;8903;52.220;20.978;2023-04-12T02:42:50;7.70;99.90
17571;DHT22;8903;52.220;20.978;2023-04-12T02:45:17;7.70;99.90
17571;DHT22;8903;52.220;20.978;2023-04-12T02:47:46;7.80;99.90
17571;DHT22;8903;52.220;20.978;2023-04-12T02:50:13;7.80;99.90
17571;DHT22;8903;52.220;20.978;2023-04-12T02:52:49;7.80;99.90
17571;DHT22;8903;52.220;20.978;2023-04-12T02:55:16;7.90;99.90
17571;DHT22;8903;52.220;20.978;2023-04-12T02:57:44;7.90;99.90
17571;DHT22;8903;52.220;20.978;2023-04-12T03:00:14;7.90;99.90
17571;DHT22;8903;52.220;20.978;2023-04-12T03:02:48;7.90;99.90
17571;DHT22;8903;52.220;20.978;2023-04-12T03:05:26;7.90;99.90
17571;DHT22;8903;52.220;20.978;2023-04-12T03:07:53;7.90;99.90
17571;DHT22;8903;52.220;20.978;2023-04-12T03:10:28;8.00;99.90
17571;DHT22;8903;52.220;20.978;2023-04-12T03:13:00;8.00;99.90
17571;DHT22;8903;52.220;20.978;2023-04-12T03:15:34;8.00;99.90
17571;DHT22;8903;52.220;20.978;2023-04-12T03:18:03;8.00;99.90
17571;DHT22;8903;52.220;20.978;2023-04-12T03:20:36;8.00;99.90
17571;DHT22;8903;52.220;20.978;2023-04-12T03:23:08;8.00;99.90
17571;DHT22;8903;52.220;20.978;2023-04-12T03:25:40;8.10;99.90
17571;DHT22;8903;52.220;20.978;2023-04-12T03:28:30;8.00;99.90
17571;DHT22;8903;52.220;20.978;2023-04-12T03:30:58;8.00;99.90
17571;DHT22;8903;52.220;20.978;2023-04-12T03:33:37;8.00;99.90
17571;DHT22;8903;52.220;20.978;2023-04-12T03:36:05;8.00;99.90
17571;DHT22;8903;52.220;20.978;2023-04-12T03:38:34;8.00;99.90
17571;DHT22;8903;52.220;20.978;2023-04-12T03:41:01;7.90;99.90
17571;DHT22;8903;52.220;20.978;2023-04-12T03:43:35;7.90;99.90
17571;DHT22;8903;52.220;20.978;2023-04-12T03:46:07;7.90;99.90
17571;DHT22;8903;52.220;20.978;2023-04-12T03:48:34;7.90;99.90
17571;DHT22;8903;52.220;20.978;2023-04-12T03:51:04;7.90;99.90
17571;DHT22;8903;52.220;20.978;2023-04-12T03:53:40;8.00;99.90
17571;DHT22;8903;52.220;20.978;2023-04-12T03:56:11;8.00;99.90
17571;DHT22;8903;52.220;20.978;2023-04-12T03:58:40;7.90;99.90
17571;DHT22;8903;52.220;20.978;2023-04-12T04:01:08;7.90;99.90
17571;DHT22;8903;52.220;20.978;2023-04-12T04:03:36;7.90;99.90
17571;DHT22;8903;52.220;20.978;2023-04-12T04:06:18;8.00;99.90
17571;DHT22;8903;52.220;20.978;2023-04-12T04:08:45;8.00;99.90
17571;DHT22;8903;52.220;20.978;2023-04-12T04:11:13;8.00;99.90
17571;DHT22;8903;52.220;20.978;2023-04-12T04:13:46;8.00;99.90
17571;DHT22;8903;52.220;20.978;2023-04-12T04:16:18;7.90;99.90
17571;DHT22;8903;52.220;20.978;2023-04-12T04:18:45;8.00;99.90
17571;DHT22;8903;52.220;20.978;2023-04-12T04:21:15;8.00;99.90
17571;DHT22;8903;52.220;20.978;2023-04-12T04:23:44;8.00;99.90
17571;DHT22;8903;52.220;20.978;2023-04-12T04:26:14;8.00;99.90
17571;DHT22;8903;52.220;20.978;2023-04-12T04:28:55;8.10;99.90
17571;DHT22;8903;52.220;20.978;2023-04-12T04:31:30;8.10;99.90
17571;DHT22;8903;52.220;20.978;2023-04-12T04:34:00;8.10;99.90
17571;DHT22;8903;52.220;20.978;2023-04-12T04:36:33;8.10;99.90
17571;DHT22;8903;52.220;20.978;2023-04-12T04:39:02;8.10;99.90
17571;DHT22;8903;52.220;20.978;2023-04-12T04:41:42;8.10;99.90
17571;DHT22;8903;52.220;20.978;2023-04-12T04:44:15;8.10;99.90
17571;DHT22;8903;52.220;20.978;2023-04-12T04:46:51;8.20;99.90
17571;DHT22;8903;52.220;20.978;2023-04-12T04:49:18;8.20;99.90
17571;DHT22;8903;52.220;20.978;2023-04-12T04:51:46;8.20;99.90
17571;DHT22;8903;52.220;20.978;2023-04-12T04:54:15;8.30;99.90
17571;DHT22;8903;52.220;20.978;2023-04-12T04:56:43;8.40;99.90
17571;DHT22;8903;52.220;20.978;2023-04-12T04:59:12;8.40;99.90
17571;DHT22;8903;52.220;20.978;2023-04-12T05:01:39;8.50;99.90
17571;DHT22;8903;52.220;20.978;2023-04-12T05:04:09;8.50;99.90
17571;DHT22;8903;52.220;20.978;2023-04-12T05:06:36;8.50;99.90
17571;DHT22;8903;52.220;20.978;2023-04-12T05:09:05;8.50;99.90
17571;DHT22;8903;52.220;20.978;2023-04-12T05:11:39;8.50;99.90
17571;DHT22;8903;52.220;20.978;2023-04-12T05:14:09;8.50;99.90
17571;DHT22;8903;52.220;20.978;2023-04-12T05:16:37;8.50;99.90
17571;DHT22;8903;52.220;20.978;2023-04-12T05:19:05;8.50;99.90
17571;DHT22;8903;52.220;20.978;2023-04-12T05:21:33;8.50;99.90
17571;DHT22;8903;52.220;20.978;2023-04-12T05:24:00;8.50;99.90
17571;DHT22;8903;52.220;20.978;2023-04-12T05:26:30;8.60;99.90
17571;DHT22;8903;52.220;20.978;2023-04-12T05:29:00;8.50;99.90
17571;DHT22;8903;52.220;20.978;2023-04-12T05:31:27;8.40;99.90
17571;DHT22;8903;52.220;20.978;2023-04-12T05:33:57;8.50;99.90
17571;DHT22;8903;52.220;20.978;2023-04-12T05:36:30;8.50;99.90
17571;DHT22;8903;52.220;20.978;2023-04-12T05:38:58;8.50;99.90
17571;DHT22;8903;52.220;20.978;2023-04-12T05:41:26;8.50;99.90
17571;DHT22;8903;52.220;20.978;2023-04-12T05:43:53;8.60;99.90
17571;DHT22;8903;52.220;20.978;2023-04-12T05:46:22;8.60;99.90
17571;DHT22;8903;52.220;20.978;2023-04-12T05:48:50;8.70;99.90
17571;DHT22;8903;52.220;20.978;2023-04-12T05:51:17;8.70;99.90
17571;DHT22;8903;52.220;20.978;2023-04-12T05:53:45;8.70;99.90
17571;DHT22;8903;52.220;20.978;2023-04-12T05:56:13;8.70;99.90
17571;DHT22;8903;52.220;20.978;2023-04-12T05:58:42;8.80;99.90
17571;DHT22;8903;52.220;20.978;2023-04-12T06:01:09;8.80;99.90
17571;DHT22;8903;52.220;20.978;2023-04-12T06:03:39;8.80;99.90
17571;DHT22;8903;52.220;20.978;2023-04-12T06:06:08;8.70;99.90
17571;DHT22;8903;52.220;20.978;2023-04-12T06:08:35;8.70;99.90
17571;DHT22;8903;52.220;20.978;2023-04-12T06:11:04;8.60;99.90
17571;DHT22;8903;52.220;20.978;2023-04-12T06:13:32;8.50;99.90
17571;DHT22;8903;52.220;20.978;2023-04-12T06:15:59;8.60;99.90
17571;DHT22;8903;52.220;20.978;2023-04-12T06:18:26;8.70;99.90
17571;DHT22;8903;52.220;20.978;2023-04-12T06:20:55;8.80;99.90
17571;DHT22;8903;52.220;20.978;2023-04-12T06:23:23;8.80;99.90
17571;DHT22;8903;52.220;20.978;2023-04-12T06:25:51;8.90;99.90
17571;DHT22;8903;52.220;20.978;2023-04-12T06:28:18;8.90;99.90
17571;DHT22;8903;52.220;20.978;2023-04-12T06:30:48;8.90;99.90
17571;DHT22;8903;52.220;20.978;2023-04-12T06:33:14;9.00;99.90
17571;DHT22;8903;52.220;20.978;2023-04-12T06:35:42;9.00;99.90
17571;DHT22;8903;52.220;20.978;2023-04-12T06:38:10;8.90;99.90
17571;DHT22;8903;52.220;20.978;2023-04-12T06:40:37;9.00;99.90
17571;DHT22;8903;52.220;20.978;2023-04-12T06:43:04;9.00;99.90
17571;DHT22;8903;52.220;20.978;2023-04-12T06:45:32;9.10;99.90
17571;DHT22;8903;52.220;20.978;2023-04-12T06:47:59;9.10;99.90
17571;DHT22;8903;52.220;20.978;2023-04-12T06:50:26;9.10;99.90
17571;DHT22;8903;52.220;20.978;2023-04-12T06:52:53;8.90;99.90
17571;DHT22;8903;52.220;20.978;2023-04-12T06:55:21;8.80;99.90
17571;DHT22;8903;52.220;20.978;2023-04-12T06:57:48;8.70;99.90
17571;DHT22;8903;52.220;20.978;2023-04-12T07:00:17;8.60;99.90
17571;DHT22;8903;52.220;20.978;2023-04-12T07:02:44;8.70;99.90
17571;DHT22;8903;52.220;20.978;2023-04-12T07:05:11;8.70;99.90
17571;DHT22;8903;52.220;20.978;2023-04-12T07:07:38;8.80;99.90
17571;DHT22;8903;52.220;20.978;2023-04-12T07:10:06;8.90;99.90
17571;DHT22;8903;52.220;20.978;2023-04-12T07:12:34;8.90;99.90
17571;DHT22;8903;52.220;20.978;2023-04-12T07:15:01;8.90;99.90
17571;DHT22;8903;52.220;20.978;2023-04-12T07:17:28;8.90;99.90
17571;DHT22;8903;52.220;20.978;2023-04-12T07:19:56;8.80;99.90
17571;DHT22;8903;52.220;20.978;2023-04-12T07:22:23;8.90;99.90
17571;DHT22;8903;52.220;20.978;2023-04-12T07:24:50;9.00;99.90
17571;DHT22;8903;52.220;20.978;2023-04-12T07:27:17;9.10;99.90
17571;DHT22;8903;52.220;20.978;2023-04-12T07:29:45;8.90;99.90
17571;DHT22;8903;52.220;20.978;2023-04-12T07:32:14;8.90;99.90
17571;DHT22;8903;52.220;20.978;2023-04-12T07:34:41;8.80;99.90
17571;DHT22;8903;52.220;20.978;2023-04-12T07:37:08;8.80;99.90
17571;DHT22;8903;52.220;20.978;2023-04-12T07:39:35;8.70;99.90
17571;DHT22;8903;52.220;20.978;2023-04-12T07:42:05;8.80;99.90
17571;DHT22;8903;52.220;20.978;2023-04-12T07:44:32;8.80;99.90
17571;DHT22;8903;52.220;20.978;2023-04-12T07:47:00;8.90;99.90
17571;DHT22;8903;52.220;20.978;2023-04-12T07:49:27;9.00;99.90
17571;DHT22;8903;52.220;20.978;2023-04-12T07:51:54;9.10;99.90
17571;DHT22;8903;52.220;20.978;2023-04-12T07:54:22;9.20;99.90
17571;DHT22;8903;52.220;20.978;2023-04-12T07:57:00;9.30;99.90
17571;DHT22;8903;52.220;20.978;2023-04-12T07:59:28;9.40;99.90
17571;DHT22;8903;52.220;20.978;2023-04-12T08:01:56;9.40;99.90
17571;DHT22;8903;52.220;20.978;2023-04-12T08:04:24;9.30;99.90
17571;DHT22;8903;52.220;20.978;2023-04-12T08:06:55;9.30;99.90
17571;DHT22;8903;52.220;20.978;2023-04-12T08:09:22;9.20;99.90
17571;DHT22;8903;52.220;20.978;2023-04-12T08:11:50;9.20;99.90
17571;DHT22;8903;52.220;20.978;2023-04-12T08:14:17;9.20;99.90
17571;DHT22;8903;52.220;20.978;2023-04-12T08:16:44;9.30;99.90
17571;DHT22;8903;52.220;20.978;2023-04-12T08:19:12;9.40;99.90
17571;DHT22;8903;52.220;20.978;2023-04-12T08:21:41;9.50;99.90
17571;DHT22;8903;52.220;20.978;2023-04-12T08:24:17;9.60;99.90
17571;DHT22;8903;52.220;20.978;2023-04-12T08:26:48;9.60;99.90
17571;DHT22;8903;52.220;20.978;2023-04-12T08:29:16;9.60;99.90
17571;DHT22;8903;52.220;20.978;2023-04-12T08:31:45;9.60;99.90
17571;DHT22;8903;52.220;20.978;2023-04-12T08:34:15;9.60;99.90
17571;DHT22;8903;52.220;20.978;2023-04-12T08:36:51;9.60;99.90
17571;DHT22;8903;52.220;20.978;2023-04-12T08:39:22;9.60;99.90
17571;DHT22;8903;52.220;20.978;2023-04-12T08:41:49;9.60;99.90
17571;DHT22;8903;52.220;20.978;2023-04-12T08:44:18;9.60;99.90
17571;DHT22;8903;52.220;20.978;2023-04-12T08:46:46;9.70;99.90
17571;DHT22;8903;52.220;20.978;2023-04-12T08:49:15;9.70;99.90
17571;DHT22;8903;52.220;20.978;2023-04-12T08:51:43;9.70;99.90
17571;DHT22;8903;52.220;20.978;2023-04-12T08:54:15;9.70;99.90
17571;DHT22;8903;52.220;20.978;2023-04-12T08:56:47;9.80;99.90
17571;DHT22;8903;52.220;20.978;2023-04-12T08:59:15;9.80;99.90
17571;DHT22;8903;52.220;20.978;2023-04-12T09:01:43;9.80;99.90
17571;DHT22;8903;52.220;20.978;2023-04-12T09:04:14;9.70;99.90
17571;DHT22;8903;52.220;20.978;2023-04-12T09:06:41;9.70;99.90
17571;DHT22;8903;52.220;20.978;2023-04-12T09:09:08;9.80;99.90
17571;DHT22;8903;52.220;20.978;2023-04-12T09:11:37;9.80;99.90
17571;DHT22;8903;52.220;20.978;2023-04-12T09:14:21;9.90;99.90
17571;DHT22;8903;52.220;20.978;2023-04-12T09:16:52;10.00;99.90
17571;DHT22;8903;52.220;20.978;2023-04-12T09:19:30;10.20;99.90
17571;DHT22;8903;52.220;20.978;2023-04-12T09:21:57;10.30;99.90
17571;DHT22;8903;52.220;20.978;2023-04-12T09:24:25;10.50;99.90
17571;DHT22;8903;52.220;20.978;2023-04-12T09:27:15;10.60;99.90
17571;DHT22;8903;52.220;20.978;2023-04-12T09:30:09;10.80;99.90
17571;DHT22;8903;52.220;20.978;2023-04-12T09:32:36;11.00;99.90
17571;DHT22;8903;52.220;20.978;2023-04-12T09:35:05;11.00;99.90
17571;DHT22;8903;52.220;20.978;2023-04-12T09:37:32;11.10;99.90
17571;DHT22;8903;52.220;20.978;2023-04-12T09:40:02;11.10;99.90
17571;DHT22;8903;52.220;20.978;2023-04-12T09:42:32;11.00;99.90
17571;DHT22;8903;52.220;20.978;2023-04-12T09:45:17;11.00;99.90
17571;DHT22;8903;52.220;20.978;2023-04-12T09:47:52;11.10;99.90
17571;DHT22;8903;52.220;20.978;2023-04-12T09:50:21;11.20;99.90
17571;DHT22;8903;52.220;20.978;2023-04-12T09:52:50;11.40;99.90
17571;DHT22;8903;52.220;20.978;2023-04-12T09:55:20;11.60;99.90
17571;DHT22;8903;52.220;20.978;2023-04-12T09:57:50;11.80;99.90
17571;DHT22;8903;52.220;20.978;2023-04-12T10:00:20;11.90;99.90
17571;DHT22;8903;52.220;20.978;2023-04-12T10:02:49;12.00;99.90
17571;DHT22;8903;52.220;20.978;2023-04-12T10:05:18;11.70;99.90
17571;DHT22;8903;52.220;20.978;2023-04-12T10:07:46;11.40;99.90
17571;DHT22;8903;52.220;20.978;2023-04-12T10:10:15;11.40;99.90
17571;DHT22;8903;52.220;20.978;2023-04-12T10:12:44;11.30;99.90
17571;DHT22;8903;52.220;20.978;2023-04-12T10:15:14;11.40;99.90
17571;DHT22;8903;52.220;20.978;2023-04-12T10:17:43;11.50;99.90
17571;DHT22;8903;52.220;20.978;2023-04-12T10:20:11;11.70;99.90
17571;DHT22;8903;52.220;20.978;2023-04-12T10:22:40;11.80;99.90
17571;DHT22;8903;52.220;20.978;2023-04-12T10:25:12;11.90;99.90
17571;DHT22;8903;52.220;20.978;2023-04-12T10:27:41;12.00;99.90
17571;DHT22;8903;52.220;20.978;2023-04-12T10:30:24;12.00;99.90
17571;DHT22;8903;52.220;20.978;2023-04-12T10:33:11;12.10;99.90
17571;DHT22;8903;52.220;20.978;2023-04-12T10:35:56;11.90;99.90
17571;DHT22;8903;52.220;20.978;2023-04-12T10:38:26;11.90;99.90
17571;DHT22;8903;52.220;20.978;2023-04-12T10:41:17;12.10;99.90
17571;DHT22;8903;52.220;20.978;2023-04-12T10:43:45;12.30;99.90
17571;DHT22;8903;52.220;20.978;2023-04-12T10:46:51;12.20;99.90
17571;DHT22;8903;52.220;20.978;2023-04-12T10:49:18;11.80;99.90
17571;DHT22;8903;52.220;20.978;2023-04-12T10:52:11;11.60;99.90
17571;DHT22;8903;52.220;20.978;2023-04-12T10:54:42;11.50;99.90
17571;DHT22;8903;52.220;20.978;2023-04-12T11:00:15;11.40;99.90
17571;DHT22;8903;52.220;20.978;2023-04-12T11:03:06;11.40;99.90
17571;DHT22;8903;52.220;20.978;2023-04-12T11:05:59;11.50;99.90
17571;DHT22;8903;52.220;20.978;2023-04-12T11:08:45;11.80;99.90
17571;DHT22;8903;52.220;20.978;2023-04-12T11:11:26;12.00;99.90
17571;DHT22;8903;52.220;20.978;2023-04-12T11:13:54;12.20;99.90
17571;DHT22;8903;52.220;20.978;2023-04-12T11:16:26;12.20;99.90
17571;DHT22;8903;52.220;20.978;2023-04-12T11:18:55;12.10;99.90
17571;DHT22;8903;52.220;20.978;2023-04-12T11:21:23;12.20;99.90
17571;DHT22;8903;52.220;20.978;2023-04-12T11:23:51;12.30;99.90
17571;DHT22;8903;52.220;20.978;2023-04-12T11:26:42;12.40;99.90
17571;DHT22;8903;52.220;20.978;2023-04-12T11:29:11;12.50;99.90
17571;DHT22;8903;52.220;20.978;2023-04-12T11:31:41;12.80;99.90
17571;DHT22;8903;52.220;20.978;2023-04-12T11:34:10;13.60;99.90
17571;DHT22;8903;52.220;20.978;2023-04-12T11:36:38;14.40;99.90
17571;DHT22;8903;52.220;20.978;2023-04-12T11:39:06;15.10;99.90
17571;DHT22;8903;52.220;20.978;2023-04-12T11:41:34;15.40;99.90
17571;DHT22;8903;52.220;20.978;2023-04-12T11:44:02;15.40;99.90
17571;DHT22;8903;52.220;20.978;2023-04-12T11:46:32;15.50;99.90
17571;DHT22;8903;52.220;20.978;2023-04-12T11:49:00;15.50;99.90
17571;DHT22;8903;52.220;20.978;2023-04-12T11:51:30;15.10;99.90
17571;DHT22;8903;52.220;20.978;2023-04-12T11:53:58;15.00;99.90
17571;DHT22;8903;52.220;20.978;2023-04-12T11:56:28;14.80;99.90
17571;DHT22;8903;52.220;20.978;2023-04-12T11:58:56;14.60;99.90
17571;DHT22;8903;52.220;20.978;2023-04-12T12:01:24;14.40;99.90
17571;DHT22;8903;52.220;20.978;2023-04-12T12:03:52;13.80;99.90
17571;DHT22;8903;52.220;20.978;2023-04-12T12:06:20;13.40;99.90
17571;DHT22;8903;52.220;20.978;2023-04-12T12:08:50;13.20;99.90
17571;DHT22;8903;52.220;20.978;2023-04-12T12:11:19;13.70;99.90
17571;DHT22;8903;52.220;20.978;2023-04-12T12:13:47;13.60;99.90
17571;DHT22;8903;52.220;20.978;2023-04-12T12:16:15;13.70;99.90
17571;DHT22;8903;52.220;20.978;2023-04-12T12:18:44;14.20;99.90
17571;DHT22;8903;52.220;20.978;2023-04-12T12:21:13;14.60;99.90
17571;DHT22;8903;52.220;20.978;2023-04-12T12:23:42;14.60;99.90
17571;DHT22;8903;52.220;20.978;2023-04-12T12:26:18;14.90;99.90
17571;DHT22;8903;52.220;20.978;2023-04-12T12:28:49;15.10;99.90
17571;DHT22;8903;52.220;20.978;2023-04-12T12:31:19;15.80;99.90
17571;DHT22;8903;52.220;20.978;2023-04-12T12:33:46;16.00;99.90
17571;DHT22;8903;52.220;20.978;2023-04-12T12:36:17;15.70;99.90
17571;DHT22;8903;52.220;20.978;2023-04-12T12:38:46;15.40;99.90
17571;DHT22;8903;52.220;20.978;2023-04-12T12:41:18;15.20;99.90
17571;DHT22;8903;52.220;20.978;2023-04-12T12:43:46;14.90;99.90
17571;DHT22;8903;52.220;20.978;2023-04-12T12:46:14;14.60;99.90
17571;DHT22;8903;52.220;20.978;2023-04-12T12:48:43;14.50;99.90
17571;DHT22;8903;52.220;20.978;2023-04-12T12:51:14;14.70;99.90
17571;DHT22;8903;52.220;20.978;2023-04-12T12:53:44;14.90;99.90
17571;DHT22;8903;52.220;20.978;2023-04-12T12:56:13;15.30;99.90
17571;DHT22;8903;52.220;20.978;2023-04-12T12:59:00;15.50;99.90
17571;DHT22;8903;52.220;20.978;2023-04-12T13:01:27;15.70;99.90
17571;DHT22;8903;52.220;20.978;2023-04-12T13:03:55;15.90;99.90
17571;DHT22;8903;52.220;20.978;2023-04-12T13:06:23;15.90;99.90
17571;DHT22;8903;52.220;20.978;2023-04-12T13:08:53;15.80;99.90
17571;DHT22;8903;52.220;20.978;2023-04-12T13:11:21;15.90;99.90
17571;DHT22;8903;52.220;20.978;2023-04-12T13:13:48;16.20;99.90
17571;DHT22;8903;52.220;20.978;2023-04-12T13:16:17;16.40;99.90
17571;DHT22;8903;52.220;20.978;2023-04-12T13:18:45;16.70;99.90
17571;DHT22;8903;52.220;20.978;2023-04-12T13:21:24;17.10;99.90
17571;DHT22;8903;52.220;20.978;2023-04-12T13:23:52;16.80;99.90
17571;DHT22;8903;52.220;20.978;2023-04-12T13:26:19;16.40;99.90
17571;DHT22;8903;52.220;20.978;2023-04-12T13:28:49;16.10;99.90
17571;DHT22;8903;52.220;20.978;2023-04-12T13:31:18;16.00;99.90
17571;DHT22;8903;52.220;20.978;2023-04-12T13:33:45;16.30;99.90
17571;DHT22;8903;52.220;20.978;2023-04-12T13:36:13;16.20;99.90
17571;DHT22;8903;52.220;20.978;2023-04-12T13:38:40;15.80;99.90
17571;DHT22;8903;52.220;20.978;2023-04-12T13:41:08;15.50;99.90
17571;DHT22;8903;52.220;20.978;2023-04-12T13:43:35;15.50;99.90
17571;DHT22;8903;52.220;20.978;2023-04-12T13:46:03;15.50;99.90
17571;DHT22;8903;52.220;20.978;2023-04-12T13:48:32;15.60;99.90
17571;DHT22;8903;52.220;20.978;2023-04-12T13:50:59;15.60;99.90
17571;DHT22;8903;52.220;20.978;2023-04-12T13:53:26;15.90;99.90
17571;DHT22;8903;52.220;20.978;2023-04-12T13:55:56;16.00;99.90
17571;DHT22;8903;52.220;20.978;2023-04-12T13:58:23;15.90;99.90
17571;DHT22;8903;52.220;20.978;2023-04-12T14:00:52;15.80;99.90
17571;DHT22;8903;52.220;20.978;2023-04-12T14:03:21;15.80;99.90
17571;DHT22;8903;52.220;20.978;2023-04-12T14:05:50;16.00;99.90
17571;DHT22;8903;52.220;20.978;2023-04-12T14:08:17;16.10;99.90
17571;DHT22;8903;52.220;20.978;2023-04-12T14:10:45;16.10;99.90
17571;DHT22;8903;52.220;20.978;2023-04-12T14:13:12;16.40;99.90
17571;DHT22;8903;52.220;20.978;2023-04-12T14:15:40;16.70;99.90
17571;DHT22;8903;52.220;20.978;2023-04-12T14:18:07;17.00;99.90
17571;DHT22;8903;52.220;20.978;2023-04-12T14:20:34;17.00;99.90
17571;DHT22;8903;52.220;20.978;2023-04-12T14:23:03;17.40;99.90
17571;DHT22;8903;52.220;20.978;2023-04-12T14:25:30;17.70;99.90
17571;DHT22;8903;52.220;20.978;2023-04-12T14:27:59;18.00;99.90
17571;DHT22;8903;52.220;20.978;2023-04-12T14:30:27;18.20;99.90
17571;DHT22;8903;52.220;20.978;2023-04-12T14:32:54;18.30;99.90
17571;DHT22;8903;52.220;20.978;2023-04-12T14:35:22;18.30;99.90
17571;DHT22;8903;52.220;20.978;2023-04-12T14:37:49;18.40;99.90
17571;DHT22;8903;52.220;20.978;2023-04-12T14:44:05;18.00;99.90
17571;DHT22;8903;52.220;20.978;2023-04-12T14:46:32;17.70;99.90
17571;DHT22;8903;52.220;20.978;2023-04-12T14:48:59;17.50;99.90
17571;DHT22;8903;52.220;20.978;2023-04-12T14:51:26;17.30;99.90
17571;DHT22;8903;52.220;20.978;2023-04-12T14:53:53;17.20;99.90
17571;DHT22;8903;52.220;20.978;2023-04-12T14:56:21;17.10;99.90
17571;DHT22;8903;52.220;20.978;2023-04-12T14:58:50;16.60;99.90
17571;DHT22;8903;52.220;20.978;2023-04-12T15:01:19;16.00;99.90
17571;DHT22;8903;52.220;20.978;2023-04-12T15:03:47;15.60;99.90
17571;DHT22;8903;52.220;20.978;2023-04-12T15:06:16;15.20;99.90
17571;DHT22;8903;52.220;20.978;2023-04-12T15:08:43;14.70;99.90
17571;DHT22;8903;52.220;20.978;2023-04-12T15:11:11;14.50;99.90
17571;DHT22;8903;52.220;20.978;2023-04-12T15:13:39;14.30;99.90
17571;DHT22;8903;52.220;20.978;2023-04-12T15:16:09;14.10;99.90
17571;DHT22;8903;52.220;20.978;2023-04-12T15:18:38;13.90;99.90
17571;DHT22;8903;52.220;20.978;2023-04-12T15:21:07;13.90;99.90
17571;DHT22;8903;52.220;20.978;2023-04-12T15:23:35;13.80;99.90
17571;DHT22;8903;52.220;20.978;2023-04-12T15:26:04;13.80;99.90
17571;DHT22;8903;52.220;20.978;2023-04-12T15:28:33;13.60;99.90
17571;DHT22;8903;52.220;20.978;2023-04-12T15:31:01;13.50;99.90
17571;DHT22;8903;52.220;20.978;2023-04-12T15:33:29;13.30;99.90
17571;DHT22;8903;52.220;20.978;2023-04-12T15:36:00;13.30;99.90
17571;DHT22;8903;52.220;20.978;2023-04-12T15:38:28;13.40;99.90
17571;DHT22;8903;52.220;20.978;2023-04-12T15:40:55;13.40;99.90
17571;DHT22;8903;52.220;20.978;2023-04-12T15:43:23;13.50;99.90
17571;DHT22;8903;52.220;20.978;2023-04-12T15:45:51;13.50;99.90
17571;DHT22;8903;52.220;20.978;2023-04-12T15:48:19;13.60;99.90
17571;DHT22;8903;52.220;20.978;2023-04-12T15:50:47;13.70;99.90
17571;DHT22;8903;52.220;20.978;2023-04-12T15:53:17;13.80;99.90
17571;DHT22;8903;52.220;20.978;2023-04-12T15:55:45;13.80;99.90
17571;DHT22;8903;52.220;20.978;2023-04-12T15:58:12;13.80;99.90
17571;DHT22;8903;52.220;20.978;2023-04-12T16:00:39;13.80;99.90
17571;DHT22;8903;52.220;20.978;2023-04-12T16:03:06;13.90;99.90
17571;DHT22;8903;52.220;20.978;2023-04-12T16:05:34;14.00;99.90